Time;durP1;ratioP1;P1;durP2;ratioP2;P2;SDS_P1;SDS_P2;PMS_P1;PMS_P2;Temp;Humidity;BMP_temperature;BMP_pressure;BME280_temperature;BME280_humidity;BME280_pressure;Samples;Min_cycle;Max_cycle;Signal;HPM_P1;HPM_P2
2023/10/25 00:01:31;;;;;;;8.27;6.68;;;;;;;10.58;82.72;99546.09;4196096;28;21658;-66
2023/10/25 00:03:35;;;;;;;10.43;7.90;;;;;;;10.57;82.38;99546.94;4192825;28;20028;-66
2023/10/25 00:05:39;;;;;;;7.90;6.35;;;;;;;10.54;82.74;99552.13;4195068;28;20037;-66
2023/10/25 00:07:42;;;;;;;8.35;7.22;;;;;;;10.62;81.99;99547.81;4194690;28;20076;-66
2023/10/25 00:09:45;;;;;;;24.55;11.55;;;;;;;10.62;82.31;99550.41;4197656;28;20150;-66
2023/10/25 00:11:48;;;;;;;24.13;14.75;;;;;;;10.69;82.78;99540.84;4201437;28;20055;-66
2023/10/25 00:13:51;;;;;;;15.73;11.45;;;;;;;10.61;83.53;99543.47;4177971;28;20124;-66
2023/10/25 00:15:54;;;;;;;18.80;14.43;;;;;;;10.60;83.60;99539.13;4196032;28;20520;-66
2023/10/25 00:17:56;;;;;;;17.10;14.07;;;;;;;10.63;84.12;99546.94;4192611;28;20040;-67
2023/10/25 00:19:59;;;;;;;19.90;14.38;;;;;;;10.62;83.64;99543.47;4194622;28;20044;-66
2023/10/25 00:22:04;;;;;;;24.13;15.98;;;;;;;10.60;84.17;99541.72;4197688;28;20071;-66
2023/10/25 00:24:08;;;;;;;19.45;14.85;;;;;;;10.60;84.75;99542.63;4191837;28;20131;-66
2023/10/25 00:26:11;;;;;;;14.35;10.10;;;;;;;10.57;85.03;99536.53;4197624;28;20048;-66
2023/10/25 00:28:19;;;;;;;31.23;14.68;;;;;;;10.67;84.57;99535.66;4177757;28;20037;-66
2023/10/25 00:30:22;;;;;;;26.40;13.77;;;;;;;10.63;84.80;99533.94;4181889;28;20037;-66
2023/10/25 00:32:25;;;;;;;18.38;12.57;;;;;;;10.67;84.13;99537.41;4180805;28;20048;-66
2023/10/25 00:34:28;;;;;;;22.88;15.38;;;;;;;10.67;84.27;99538.25;4165299;28;20033;-66
2023/10/25 00:36:31;;;;;;;19.42;14.98;;;;;;;10.69;85.13;99533.06;4175886;28;20029;-66
2023/10/25 00:38:35;;;;;;;27.58;15.18;;;;;;;10.76;84.29;99546.06;4171106;28;20060;-66
2023/10/25 00:40:39;;;;;;;19.98;15.32;;;;;;;10.67;83.90;99543.47;4194626;28;20403;-66
2023/10/25 00:42:42;;;;;;;23.95;15.27;;;;;;;10.56;85.25;99548.69;4173814;28;20140;-66
2023/10/25 00:44:45;;;;;;;17.70;12.38;;;;;;;10.56;85.38;99545.22;4171250;28;20060;-66
2023/10/25 00:46:48;;;;;;;16.88;13.35;;;;;;;10.63;84.89;99552.13;4167181;28;20494;-66
2023/10/25 00:48:55;;;;;;;31.38;13.77;;;;;;;10.69;84.74;99552.16;4197530;28;20082;-66
2023/10/25 00:50:59;;;;;;;21.42;14.88;;;;;;;10.68;84.92;99549.56;4164162;28;20501;-66
2023/10/25 00:53:02;;;;;;;16.60;13.37;;;;;;;10.67;84.75;99545.22;4175719;28;20065;-66
2023/10/25 00:55:08;;;;;;;15.30;11.90;;;;;;;10.59;84.51;99546.06;4168940;28;20299;-66
2023/10/25 00:57:13;;;;;;;23.42;15.35;;;;;;;10.64;84.84;99546.06;4183894;28;20091;-66
2023/10/25 00:59:17;;;;;;;15.93;11.70;;;;;;;10.62;84.83;99545.22;4194389;28;20486;-66
2023/10/25 01:01:23;;;;;;;18.33;14.18;;;;;;;10.54;85.54;99541.75;4176390;28;20032;-66
2023/10/25 01:03:26;;;;;;;15.27;11.95;;;;;;;10.56;85.32;99540.88;4172741;28;20573;-66
2023/10/25 01:05:30;;;;;;;18.40;13.18;;;;;;;10.63;85.04;99537.41;4175094;28;20067;-66
2023/10/25 01:07:33;;;;;;;13.77;10.33;;;;;;;10.59;85.49;99540.03;4175859;28;20589;-66
2023/10/25 01:09:37;;;;;;;17.02;12.20;;;;;;;10.55;85.03;99533.94;4167824;28;20322;-66
2023/10/25 01:11:41;;;;;;;18.85;12.48;;;;;;;10.57;85.41;99541.75;4178143;28;20033;-66
2023/10/25 01:13:45;;;;;;;16.35;12.95;;;;;;;10.62;84.54;99530.47;4177836;28;20045;-66
2023/10/25 01:15:47;;;;;;;14.20;11.43;;;;;;;10.57;85.23;99537.44;4170204;28;20065;-66
2023/10/25 01:17:50;;;;;;;16.58;12.07;;;;;;;10.53;85.42;99533.09;4175082;28;20065;-66
2023/10/25 01:19:54;;;;;;;14.43;10.88;;;;;;;10.52;85.46;99543.50;4193703;28;20040;-66
2023/10/25 01:21:57;;;;;;;14.98;11.52;;;;;;;10.53;84.69;99532.22;4175987;28;20029;-66
2023/10/25 01:24:01;;;;;;;15.00;11.65;;;;;;;10.51;84.91;99536.56;4168395;28;20048;-66
2023/10/25 01:26:04;;;;;;;38.38;11.05;;;;;;;10.46;84.87;99524.44;4171137;28;20067;-66
2023/10/25 01:28:06;;;;;;;13.27;10.57;;;;;;;10.46;85.00;99527.03;4168906;28;20112;-66
2023/10/25 01:30:10;;;;;;;68.05;14.35;;;;;;;10.42;85.02;99524.44;4167549;28;20097;-66
2023/10/25 01:32:13;;;;;;;19.38;12.77;;;;;;;10.46;84.89;99532.22;4150127;28;20217;-66
2023/10/25 01:34:18;;;;;;;15.05;11.45;;;;;;;10.47;85.31;99528.75;4176659;28;20045;-66
2023/10/25 01:36:22;;;;;;;21.00;11.82;;;;;;;10.58;84.75;99525.28;4194312;28;20047;-66
2023/10/25 01:38:25;;;;;;;25.02;14.48;;;;;;;10.54;84.83;99528.75;4193238;28;20044;-66
2023/10/25 01:40:29;;;;;;;20.98;14.35;;;;;;;10.52;84.48;99520.09;4172937;28;20045;-66
2023/10/25 01:42:32;;;;;;;42.05;15.52;;;;;;;10.52;84.86;99523.56;4163783;28;20037;-66
2023/10/25 01:44:35;;;;;;;49.05;14.90;;;;;;;10.60;84.63;99521.81;4168451;28;20091;-66
2023/10/25 01:46:38;;;;;;;40.65;13.40;;;;;;;10.55;84.33;99523.56;4175839;28;20037;-66
2023/10/25 01:48:43;;;;;;;24.75;16.27;;;;;;;10.50;85.07;99525.31;4177228;28;20534;-66
2023/10/25 01:50:45;;;;;;;;;;;;;;;10.43;85.03;99527.03;4176691;28;20037;-66
2023/10/25 01:52:48;;;;;;;27.00;14.65;;;;;;;10.45;85.08;99520.13;4192953;28;19952;-66
2023/10/25 01:54:51;;;;;;;19.42;13.52;;;;;;;10.54;84.91;99520.97;4173422;28;20041;-66
2023/10/25 01:56:56;;;;;;;20.80;13.48;;;;;;;10.47;85.36;99523.56;4172280;28;20522;-66
2023/10/25 01:58:58;;;;;;;40.53;14.68;;;;;;;10.54;85.42;99521.84;4175823;28;20032;-66
2023/10/25 02:01:05;;;;;;;45.38;15.77;;;;;;;10.63;84.06;99513.13;4175688;28;20035;-66
2023/10/25 02:03:08;;;;;;;39.28;13.55;;;;;;;10.58;84.96;99512.28;4151849;28;20034;-66
2023/10/25 02:05:13;;;;;;;31.02;15.15;;;;;;;10.47;85.71;99510.56;4170514;28;20044;-66
2023/10/25 02:07:15;;;;;;;32.60;16.13;;;;;;;10.63;85.16;99505.34;4192295;28;20067;-66
2023/10/25 02:09:19;;;;;;;23.98;15.57;;;;;;;10.50;85.86;99508.81;4197877;28;20040;-66
2023/10/25 02:11:22;;;;;;;17.48;13.40;;;;;;;10.49;85.50;99510.56;4175161;28;20041;-66
2023/10/25 02:13:26;;;;;;;25.80;18.80;;;;;;;10.54;85.65;99515.75;4179467;28;20132;-66
2023/10/25 02:15:28;;;;;;;47.25;18.23;;;;;;;10.62;85.98;99508.84;4168310;28;20041;-66
2023/10/25 02:17:31;;;;;;;30.35;17.77;;;;;;;10.65;85.85;99498.44;4163375;28;20037;-66
2023/10/25 02:19:35;;;;;;;35.95;17.65;;;;;;;10.63;86.14;99498.44;4167986;28;20040;-66
2023/10/25 02:21:38;;;;;;;45.75;19.65;;;;;;;10.64;85.81;99497.56;4189682;28;20029;-66
2023/10/25 02:23:40;;;;;;;22.40;17.52;;;;;;;10.60;85.95;99492.34;4174894;28;20033;-66
2023/10/25 02:25:43;;;;;;;50.20;18.23;;;;;;;10.60;86.79;99494.94;4196464;28;20068;-66
2023/10/25 02:27:46;;;;;;;23.77;17.98;;;;;;;10.69;86.42;99489.75;4171410;28;20068;-66
2023/10/25 02:29:50;;;;;;;20.48;14.77;;;;;;;10.73;85.53;99486.28;4165406;28;20037;-66
2023/10/25 02:31:53;;;;;;;20.50;17.25;;;;;;;10.67;86.64;99488.88;4172655;28;20396;-66
2023/10/25 02:33:56;;;;;;;36.25;18.65;;;;;;;10.59;86.33;99488.91;4191868;28;20118;-66
2023/10/25 02:35:59;;;;;;;23.60;16.30;;;;;;;10.71;86.50;99489.75;4168763;28;20044;-66
2023/10/25 02:38:02;;;;;;;23.35;15.10;;;;;;;10.82;85.96;99491.47;4165813;28;20415;-66
2023/10/25 02:40:06;;;;;;;29.00;17.38;;;;;;;10.72;85.58;99487.16;4174028;28;20041;-66
2023/10/25 02:42:12;;;;;;;21.77;17.05;;;;;;;10.73;86.02;99486.28;4168953;28;20033;-66
2023/10/25 02:44:15;;;;;;;26.75;16.52;;;;;;;10.68;86.53;99482.81;4168687;28;20041;-68
2023/10/25 02:46:21;;;;;;;29.53;19.27;;;;;;;10.64;86.68;99486.28;4173886;28;20483;-66
2023/10/25 02:48:23;;;;;;;54.22;20.08;;;;;;;10.75;85.76;99483.69;4175361;28;20044;-66
2023/10/25 02:50:26;;;;;;;31.23;18.33;;;;;;;10.71;85.99;99484.56;4175014;28;20068;-66
2023/10/25 02:52:29;;;;;;;21.90;16.33;;;;;;;10.69;86.07;99481.97;4149006;28;20053;-66
2023/10/25 02:54:32;;;;;;;23.63;16.90;;;;;;;10.71;86.75;99485.41;4190177;28;20043;-66
2023/10/25 02:56:33;;;;;;;36.72;18.55;;;;;;;10.79;85.90;99481.06;4160046;28;20512;-66
2023/10/25 02:58:36;;;;;;;20.92;15.88;;;;;;;10.74;86.76;99477.59;4171859;28;20037;-66
2023/10/25 03:00:38;;;;;;;23.08;16.85;;;;;;;10.78;86.68;99478.47;4176283;28;20523;-66
2023/10/25 03:02:43;;;;;;;35.67;18.27;;;;;;;10.85;86.20;99466.31;4176069;28;20402;-66
2023/10/25 03:04:46;;;;;;;41.45;20.58;;;;;;;10.94;84.97;99468.91;4189689;28;20040;-66
2023/10/25 03:06:49;;;;;;;23.27;18.42;;;;;;;10.74;85.40;99467.19;4193450;28;20040;-66
2023/10/25 03:08:53;;;;;;;33.83;18.20;;;;;;;10.81;85.63;99474.13;4173007;28;20041;-66
2023/10/25 03:10:56;;;;;;;25.83;17.10;;;;;;;10.73;85.91;99475.00;4178198;28;20033;-66
2023/10/25 03:12:59;;;;;;;31.55;19.63;;;;;;;10.80;85.74;99471.53;4161620;28;20037;-66
2023/10/25 03:15:05;;;;;;;41.45;21.67;;;;;;;10.75;85.64;99466.34;4177025;28;20075;-66
2023/10/25 03:17:07;;;;;;;42.05;18.58;;;;;;;10.90;85.74;99461.97;4177048;28;20068;-66
2023/10/25 03:19:12;;;;;;;66.10;19.75;;;;;;;10.73;85.76;99462.91;4170376;28;20045;-66
2023/10/25 03:21:15;;;;;;;38.90;19.17;;;;;;;10.73;85.60;99449.91;4194417;28;20123;-66
2023/10/25 03:23:18;;;;;;;25.10;16.63;;;;;;;10.73;85.73;99444.69;4179419;28;20579;-66
2023/10/25 03:25:21;;;;;;;35.83;21.35;;;;;;;10.75;85.81;99437.75;4167559;28;20124;-66
2023/10/25 03:27:24;;;;;;;57.40;21.63;;;;;;;10.80;85.21;99430.78;4172131;28;20042;-66
2023/10/25 03:29:27;;;;;;;60.45;22.35;;;;;;;10.79;85.09;99429.06;4172587;28;20094;-66
2023/10/25 03:31:30;;;;;;;37.83;21.88;;;;;;;10.78;85.62;99427.34;4179339;28;21563;-66
2023/10/25 03:33:34;;;;;;;26.35;17.00;;;;;;;10.70;86.17;99428.22;4196151;28;20037;-66
2023/10/25 03:35:38;;;;;;;32.25;19.23;;;;;;;10.64;86.72;99432.59;4173217;28;20079;-66
2023/10/25 03:37:41;;;;;;;30.15;22.00;;;;;;;10.69;86.44;99419.56;4174593;28;20033;-66
2023/10/25 03:39:44;;;;;;;27.38;17.80;;;;;;;10.78;86.96;99418.69;4192689;28;20090;-66
2023/10/25 03:41:47;;;;;;;35.03;19.50;;;;;;;10.77;86.77;99424.75;4195848;28;20048;-66
2023/10/25 03:43:50;;;;;;;22.45;17.20;;;;;;;10.75;86.92;99422.16;4187425;28;20494;-66
2023/10/25 03:45:54;;;;;;;27.42;20.30;;;;;;;10.78;86.39;99413.47;4177627;28;20139;-66
2023/10/25 03:47:57;;;;;;;27.38;19.58;;;;;;;10.78;86.42;99414.34;4190932;28;20128;-66
2023/10/25 03:50:01;;;;;;;30.27;20.42;;;;;;;10.80;86.77;99409.13;4199488;28;20058;-66
2023/10/25 03:52:06;;;;;;;32.70;16.70;;;;;;;10.86;87.02;99400.44;4178308;28;20036;-66
2023/10/25 03:54:09;;;;;;;;;;;;;;;10.83;86.75;99410.00;4177824;28;20056;-66
2023/10/25 03:56:11;;;;;;;16.55;13.55;;;;;;;10.79;86.33;99408.28;4179042;28;19920;-66
2023/10/25 03:58:15;;;;;;;121.20;21.38;;;;;;;10.85;86.36;99401.31;4151770;28;20507;-66
2023/10/25 04:00:18;;;;;;;43.55;16.30;;;;;;;10.95;85.73;99401.28;4177062;28;20455;-66
2023/10/25 04:02:21;;;;;;;26.92;16.48;;;;;;;10.74;86.16;99399.63;4173598;28;20037;-66
2023/10/25 04:04:24;;;;;;;27.15;16.95;;;;;;;10.64;86.95;99390.13;4196487;28;20102;-66
2023/10/25 04:06:27;;;;;;;34.97;16.27;;;;;;;10.70;87.58;99395.28;4169560;28;20047;-66
2023/10/25 04:08:31;;;;;;;23.42;16.23;;;;;;;10.71;86.92;99394.44;4192320;28;20053;-66
2023/10/25 04:10:34;;;;;;;47.90;18.23;;;;;;;10.74;86.87;99388.38;4192921;28;20068;-66
2023/10/25 04:12:36;;;;;;;20.20;15.75;;;;;;;10.71;86.90;99397.03;4176522;28;20091;-66
2023/10/25 04:14:43;;;;;;;44.38;19.92;;;;;;;10.75;87.06;99396.16;4191621;28;20045;-67
2023/10/25 04:16:46;;;;;;;59.17;21.02;;;;;;;10.81;86.88;99392.66;4194420;28;20043;-66
2023/10/25 04:18:49;;;;;;;33.15;17.65;;;;;;;10.78;86.29;99393.53;4176952;28;20036;-66
2023/10/25 04:20:52;;;;;;;27.90;17.75;;;;;;;10.71;86.92;99389.22;4194779;28;20036;-66
2023/10/25 04:22:55;;;;;;;29.40;19.95;;;;;;;10.73;87.26;99394.41;4195209;28;20069;-66
2023/10/25 04:24:59;;;;;;;45.40;19.85;;;;;;;10.79;87.43;99390.06;4192188;28;20040;-66
2023/10/25 04:27:02;;;;;;;24.77;17.83;;;;;;;10.76;87.83;99387.50;4196213;28;20536;-66
2023/10/25 04:29:06;;;;;;;27.33;17.35;;;;;;;10.78;88.24;99384.88;4189201;28;20037;-66
2023/10/25 04:31:09;;;;;;;34.22;15.88;;;;;;;10.78;88.32;99383.13;4172827;28;20033;-66
2023/10/25 04:33:12;;;;;;;19.55;14.85;;;;;;;10.79;88.06;99379.69;4194706;28;20040;-66
2023/10/25 04:35:14;;;;;;;37.88;15.60;;;;;;;10.83;87.88;99380.50;4187512;28;20039;-66
2023/10/25 04:37:17;;;;;;;91.63;24.38;;;;;;;10.84;88.12;99374.44;4192401;28;20064;-66
2023/10/25 04:39:19;;;;;;;47.42;19.00;;;;;;;10.83;87.77;99376.19;4196670;28;20047;-66
2023/10/25 04:41:23;;;;;;;30.90;17.77;;;;;;;10.95;87.29;99367.47;4195899;28;20410;-66
2023/10/25 04:43:26;;;;;;;23.58;18.30;;;;;;;10.86;87.52;99367.50;4195061;28;20044;-66
2023/10/25 04:45:35;;;;;;;31.10;20.17;;;;;;;10.86;87.57;99356.25;4193493;28;20040;-66
2023/10/25 04:47:38;;;;;;;26.80;17.88;;;;;;;10.87;88.01;99352.78;4192210;28;20139;-66
2023/10/25 04:49:41;;;;;;;24.20;18.50;;;;;;;10.94;87.79;99357.94;4193648;28;20093;-66
2023/10/25 04:51:44;;;;;;;30.35;18.58;;;;;;;10.98;88.16;99359.66;4195172;28;20064;-66
2023/10/25 04:53:46;;;;;;;20.88;16.00;;;;;;;10.97;87.88;99360.50;4196694;28;20032;-66
2023/10/25 04:55:49;;;;;;;23.52;18.58;;;;;;;10.99;87.24;99361.38;4195593;28;20033;-66
2023/10/25 04:57:53;;;;;;;19.33;14.88;;;;;;;11.02;87.45;99347.47;4188134;28;20041;-66
2023/10/25 04:59:56;;;;;;;20.83;15.95;;;;;;;10.99;87.55;99342.31;4194193;28;20409;-66
2023/10/25 05:01:59;;;;;;;23.38;18.17;;;;;;;11.04;87.51;99339.66;4198783;28;20044;-66
2023/10/25 05:04:02;;;;;;;20.90;15.85;;;;;;;10.99;87.59;99330.19;4198902;28;20041;-66
2023/10/25 05:06:06;;;;;;;20.65;16.23;;;;;;;11.03;87.25;99332.75;4198915;28;20044;-66
2023/10/25 05:08:10;;;;;;;23.65;14.85;;;;;;;10.98;87.78;99325.84;4198120;28;20538;-66
2023/10/25 05:10:13;;;;;;;19.92;16.02;;;;;;;10.95;87.26;99335.38;4199033;28;20041;-66
2023/10/25 05:12:22;;;;;;;23.70;17.60;;;;;;;10.94;87.67;99333.69;4197613;28;20053;-66
2023/10/25 05:14:27;;;;;;;18.23;15.05;;;;;;;10.94;87.17;99324.13;4188339;28;20119;-66
2023/10/25 05:16:29;;;;;;;18.17;14.65;;;;;;;10.94;87.33;99318.94;4195399;28;20032;-66
2023/10/25 05:18:33;;;;;;;24.38;16.90;;;;;;;10.96;86.87;99311.97;4193286;28;20532;-66
2023/10/25 05:20:36;;;;;;;22.52;16.58;;;;;;;10.95;86.75;99319.78;4195482;28;20040;-66
2023/10/25 05:22:41;;;;;;;22.33;16.48;;;;;;;10.93;86.43;99313.75;4175211;28;20124;-66
2023/10/25 05:24:44;;;;;;;20.05;15.57;;;;;;;10.91;86.35;99312.91;4194502;28;20128;-66
2023/10/25 05:26:47;;;;;;;18.35;14.05;;;;;;;10.89;86.88;99312.03;4192790;28;20045;-66
2023/10/25 05:28:51;;;;;;;22.15;14.68;;;;;;;10.89;86.33;99312.03;4173054;28;20475;-66
2023/10/25 05:30:59;;;;;;;20.50;15.80;;;;;;;10.82;86.67;99317.25;4192571;28;20131;-66
2023/10/25 05:33:06;;;;;;;20.02;14.13;;;;;;;10.78;86.48;99315.53;4192161;28;20042;-66
2023/10/25 05:35:11;;;;;;;18.77;14.90;;;;;;;10.80;86.21;99311.19;4194824;28;20135;-66
2023/10/25 05:37:14;;;;;;;18.20;15.00;;;;;;;10.80;85.97;99302.53;4190787;28;20045;-66
2023/10/25 05:39:18;;;;;;;19.38;14.60;;;;;;;10.83;86.02;99300.81;4194535;28;20098;-66
2023/10/25 05:41:22;;;;;;;20.73;15.18;;;;;;;10.82;85.81;99306.00;4195706;28;20043;-66
2023/10/25 05:43:28;;;;;;;14.48;11.57;;;;;;;10.77;85.69;99294.75;4191163;28;20052;-66
2023/10/25 05:45:30;;;;;;;15.40;11.68;;;;;;;10.71;85.46;99295.66;4194113;28;20518;-66
2023/10/25 05:47:35;;;;;;;12.85;10.52;;;;;;;10.71;85.74;99294.78;4173543;28;20064;-66
2023/10/25 05:49:37;;;;;;;13.32;10.55;;;;;;;10.73;85.79;99298.25;4190974;28;20037;-66
2023/10/25 05:51:41;;;;;;;12.82;10.68;;;;;;;10.72;85.57;99301.69;4195797;28;20067;-66
2023/10/25 05:53:47;;;;;;;16.65;12.05;;;;;;;10.70;85.79;99296.50;4177341;28;20036;-66
2023/10/25 05:55:50;;;;;;;20.20;14.20;;;;;;;10.68;85.22;99293.06;4191539;28;20095;-67
2023/10/25 05:57:53;;;;;;;13.07;10.68;;;;;;;10.64;85.49;99291.34;4193462;28;20058;-66
2023/10/25 05:59:57;;;;;;;18.15;11.52;;;;;;;10.66;86.10;99289.63;4176997;28;20047;-66
2023/10/25 06:02:08;;;;;;;15.95;11.15;;;;;;;10.62;85.15;99282.72;4195009;28;20489;-66
2023/10/25 06:04:13;;;;;;;15.07;11.52;;;;;;;10.63;85.67;99258.44;4193657;28;20494;-66
2023/10/25 06:06:17;;;;;;;14.55;12.07;;;;;;;10.63;85.72;99256.72;4173268;28;20112;-67
2023/10/25 06:08:21;;;;;;;15.45;12.93;;;;;;;10.61;85.50;99260.19;4193950;28;20505;-67
2023/10/25 06:10:24;;;;;;;14.75;12.32;;;;;;;10.62;84.72;99259.31;4190764;28;20047;-67
2023/10/25 06:12:30;;;;;;;15.15;11.85;;;;;;;10.59;84.53;99257.59;4193758;28;20075;-67
2023/10/25 06:14:33;;;;;;;15.73;11.75;;;;;;;10.58;84.87;99262.81;4176897;28;20075;-66
2023/10/25 06:16:35;;;;;;;16.77;11.90;;;;;;;10.57;84.63;99251.56;4194617;28;20036;-66
2023/10/25 06:18:38;;;;;;;14.60;11.32;;;;;;;10.58;84.19;99247.22;4195371;28;20042;-66
2023/10/25 06:20:43;;;;;;;11.88;9.85;;;;;;;10.65;84.48;99246.31;4193337;28;20167;-67
2023/10/25 06:22:45;;;;;;;12.00;10.32;;;;;;;10.54;83.92;99241.19;4174743;28;20037;-67
2023/10/25 06:24:48;;;;;;;14.88;11.40;;;;;;;10.51;84.06;99246.38;4194604;28;20494;-66
2023/10/25 06:26:51;;;;;;;14.75;11.32;;;;;;;10.47;85.00;99237.75;4194263;28;20132;-66
2023/10/25 06:28:54;;;;;;;12.70;11.18;;;;;;;10.48;84.59;99234.28;4169934;28;20047;-66
2023/10/25 06:30:57;;;;;;;12.98;9.85;;;;;;;10.48;84.68;99234.28;4191917;28;20094;-67
2023/10/25 06:33:00;;;;;;;12.95;10.25;;;;;;;10.51;85.13;99240.31;4192629;28;20037;-67
2023/10/25 06:35:04;;;;;;;15.15;10.10;;;;;;;10.49;85.18;99240.31;4193628;28;20124;-67
2023/10/25 06:37:08;;;;;;;10.40;8.52;;;;;;;10.48;84.78;99239.47;4191088;28;20039;-66
2023/10/25 06:39:12;;;;;;;16.23;9.23;;;;;;;10.51;85.27;99235.97;4191727;28;20512;-66
2023/10/25 06:41:16;;;;;;;13.85;11.27;;;;;;;10.55;85.09;99229.03;4194324;28;20069;-66
2023/10/25 06:43:20;;;;;;;12.88;9.88;;;;;;;10.60;85.05;99227.25;4190306;28;20063;-66
2023/10/25 06:45:23;;;;;;;17.90;11.45;;;;;;;10.62;85.46;99226.38;4193948;28;20094;-66
2023/10/25 06:47:28;;;;;;;16.35;11.45;;;;;;;10.67;84.44;99222.91;4194472;28;20037;-66
2023/10/25 06:49:31;;;;;;;11.32;8.75;;;;;;;10.65;85.44;99212.53;4176609;28;20447;-66
2023/10/25 06:51:34;;;;;;;14.90;10.20;;;;;;;10.74;84.25;99206.41;4193868;28;20513;-66
2023/10/25 06:53:38;;;;;;;14.43;11.05;;;;;;;10.70;84.45;99210.75;4193882;28;20391;-66
2023/10/25 06:55:42;;;;;;;12.45;9.43;;;;;;;10.77;84.49;99196.81;4194494;28;20064;-66
2023/10/25 06:57:46;;;;;;;12.82;8.75;;;;;;;10.80;84.85;99193.34;4192903;28;20131;-67
2023/10/25 06:59:48;;;;;;;11.40;8.30;;;;;;;10.79;84.39;99189.91;4192460;28;20052;-67
2023/10/25 07:01:59;;;;;;;12.90;9.27;;;;;;;10.84;84.84;99182.06;4169622;28;20394;-67
2023/10/25 07:04:03;;;;;;;12.80;9.80;;;;;;;10.87;85.11;99187.22;4187738;28;20060;-67
2023/10/25 07:06:07;;;;;;;12.18;7.93;;;;;;;10.92;85.25;99193.28;4190350;28;20039;-66
2023/10/25 07:08:11;;;;;;;11.97;9.70;;;;;;;10.93;85.27;99192.38;4175766;28;20049;-67
2023/10/25 07:10:16;;;;;;;14.02;10.95;;;;;;;10.99;84.63;99186.28;4193288;28;20112;-67
2023/10/25 07:12:20;;;;;;;12.75;9.63;;;;;;;10.97;84.50;99194.09;4194414;28;20086;-67
2023/10/25 07:14:23;;;;;;;9.90;8.13;;;;;;;11.03;84.56;99187.13;4189850;28;20086;-67
2023/10/25 07:16:26;;;;;;;12.73;9.50;;;;;;;10.99;85.43;99187.16;4194139;28;20561;-67
2023/10/25 07:18:28;;;;;;;10.98;8.57;;;;;;;11.06;84.97;99182.75;4191257;28;20040;-67
2023/10/25 07:20:32;;;;;;;11.25;8.75;;;;;;;11.11;84.30;99180.09;4191155;28;20044;-67
2023/10/25 07:22:34;;;;;;;12.02;9.05;;;;;;;11.04;84.76;99168.03;4179131;28;20045;-67
2023/10/25 07:24:37;;;;;;;11.15;8.00;;;;;;;11.09;84.16;99161.91;4197011;28;20058;-67
2023/10/25 07:26:44;;;;;;;9.05;7.15;;;;;;;11.10;84.16;99168.84;4197021;28;20041;-67
2023/10/25 07:28:47;;;;;;;12.82;8.70;;;;;;;11.05;85.13;99164.56;4196499;28;20460;-66
2023/10/25 07:30:50;;;;;;;12.75;9.05;;;;;;;11.09;85.49;99163.66;4197078;28;20070;-66
2023/10/25 07:32:53;;;;;;;12.55;10.18;;;;;;;11.19;84.27;99162.69;4196983;28;20041;-67
2023/10/25 07:34:56;;;;;;;10.80;8.68;;;;;;;11.18;84.73;99155.75;4191137;28;20474;-67
2023/10/25 07:36:58;;;;;;;11.63;8.68;;;;;;;11.14;85.26;99157.53;4193901;28;20509;-66
2023/10/25 07:39:00;;;;;;;14.18;8.88;;;;;;;11.21;84.95;99152.28;4175649;28;20044;-66
2023/10/25 07:41:03;;;;;;;13.18;9.05;;;;;;;11.26;84.56;99147.91;4192463;28;20119;-66
2023/10/25 07:43:08;;;;;;;13.63;9.90;;;;;;;11.25;85.01;99147.03;4194219;28;20032;-66
2023/10/25 07:45:11;;;;;;;11.13;8.80;;;;;;;11.33;84.56;99137.41;4188706;28;20045;-67
2023/10/25 07:47:14;;;;;;;10.27;7.60;;;;;;;11.35;84.96;99124.38;4192884;28;20045;-66
2023/10/25 07:49:17;;;;;;;11.70;8.25;;;;;;;11.32;85.60;99119.22;4193108;28;20128;-67
2023/10/25 07:51:20;;;;;;;11.52;8.60;;;;;;;11.43;85.67;99114.75;4193613;28;20048;-67
2023/10/25 07:53:23;;;;;;;8.63;6.85;;;;;;;11.37;85.42;99116.56;4173584;28;20037;-67
2023/10/25 07:55:25;;;;;;;8.43;7.00;;;;;;;11.42;84.84;99120.84;4193436;28;20086;-67
2023/10/25 07:57:31;;;;;;;;;;;;;;;11.31;85.79;99130.50;4192345;28;20071;-67
2023/10/25 07:59:39;;;;;;;10.60;7.55;;;;;;;11.44;85.71;99120.81;4187323;28;20023;-67
2023/10/25 08:01:40;;;;;;;9.02;6.68;;;;;;;11.61;84.57;99120.63;4193049;28;20056;-67
2023/10/25 08:03:43;;;;;;;9.32;7.25;;;;;;;11.77;84.28;99124.78;4193247;28;20391;-67
2023/10/25 08:05:46;;;;;;;11.93;7.22;;;;;;;11.65;85.17;99125.78;4188328;28;20043;-66
2023/10/25 08:07:49;;;;;;;10.90;7.05;;;;;;;11.79;84.57;99111.75;4190702;28;20041;-67
2023/10/25 08:09:52;;;;;;;9.10;6.45;;;;;;;11.68;85.15;99124.88;4194817;28;20402;-66
2023/10/25 08:11:53;;;;;;;7.65;5.80;;;;;;;11.78;85.38;99116.06;4193276;28;20063;-66
2023/10/25 08:13:56;;;;;;;8.05;6.45;;;;;;;11.84;85.64;99108.19;4190183;28;20546;-66
2023/10/25 08:16:02;;;;;;;8.45;6.47;;;;;;;11.95;85.25;99109.84;4190354;28;20036;-66
2023/10/25 08:18:05;;;;;;;10.15;7.13;;;;;;;11.88;85.68;99104.69;4176903;28;20037;-66
2023/10/25 08:20:09;;;;;;;9.00;6.47;;;;;;;11.97;84.92;99090.72;4196832;28;20371;-66
2023/10/25 08:22:12;;;;;;;6.90;5.32;;;;;;;12.11;84.49;99092.25;4197064;28;20044;-66
2023/10/25 08:24:14;;;;;;;7.65;6.47;;;;;;;12.03;84.85;99079.31;4195959;28;20089;-66
2023/10/25 08:26:17;;;;;;;10.10;5.53;;;;;;;12.02;84.91;99099.31;4192557;28;20044;-66
2023/10/25 08:28:20;;;;;;;8.65;5.57;;;;;;;12.06;83.65;99097.50;4170982;28;20045;-66
2023/10/25 08:30:23;;;;;;;6.70;4.55;;;;;;;11.97;83.73;99105.47;4198387;28;20058;-66
2023/10/25 08:32:27;;;;;;;6.53;4.63;;;;;;;11.94;83.92;99095.09;4192400;28;20040;-67
2023/10/25 08:34:30;;;;;;;6.63;5.32;;;;;;;11.88;84.65;99081.25;4189461;28;20094;-66
2023/10/25 08:36:35;;;;;;;7.28;5.10;;;;;;;12.15;84.14;99078.28;4173646;28;20156;-66
2023/10/25 08:38:39;;;;;;;7.85;5.35;;;;;;;12.03;84.15;99075.00;4189989;28;20043;-67
2023/10/25 08:40:42;;;;;;;8.48;5.32;;;;;;;12.08;83.18;99077.53;4194813;28;20403;-66
2023/10/25 08:42:45;;;;;;;9.48;5.72;;;;;;;12.01;83.47;99071.53;4194056;28;20035;-66
2023/10/25 08:44:48;;;;;;;9.80;5.85;;;;;;;11.97;83.46;99079.41;4195127;28;20051;-66
2023/10/25 08:46:52;;;;;;;11.43;5.03;;;;;;;11.92;84.21;99073.38;4190877;28;20036;-66
2023/10/25 08:48:57;;;;;;;7.22;5.28;;;;;;;11.90;84.91;99072.53;4193416;28;20423;-66
2023/10/25 08:50:59;;;;;;;7.22;5.57;;;;;;;11.97;84.11;99063.78;4170206;28;20136;-66
2023/10/25 08:53:02;;;;;;;8.45;5.32;;;;;;;12.03;84.56;99054.16;4192673;28;20051;-67
2023/10/25 08:55:08;;;;;;;7.57;5.40;;;;;;;12.01;84.55;99055.91;4191844;28;20036;-67
2023/10/25 08:57:11;;;;;;;8.98;6.03;;;;;;;12.09;84.31;99061.03;4192877;28;20399;-67
2023/10/25 08:59:14;;;;;;;7.47;5.85;;;;;;;12.17;84.29;99051.31;4194544;28;20047;-67
2023/10/25 09:01:17;;;;;;;7.30;4.85;;;;;;;12.12;83.87;99058.38;4195206;28;20387;-66
2023/10/25 09:03:40;;;;;;;7.85;5.45;;;;;;;12.10;83.87;99052.31;4192492;28;20037;-66
2023/10/25 09:05:50;;;;;;;7.90;5.30;;;;;;;12.05;84.12;99054.13;4191344;28;20153;-66
2023/10/25 09:07:56;;;;;;;8.30;5.60;;;;;;;12.03;84.10;99042.84;4199041;28;20483;-67
2023/10/25 09:09:59;;;;;;;7.30;5.63;;;;;;;11.97;84.31;99042.94;4195204;28;20123;-66
2023/10/25 09:12:02;;;;;;;7.43;5.70;;;;;;;12.00;84.14;99048.09;4194050;28;20486;-67
2023/10/25 09:14:05;;;;;;;5.95;4.60;;;;;;;11.94;84.56;99053.41;4170791;28;20039;-67
2023/10/25 09:16:10;;;;;;;7.90;4.80;;;;;;;11.90;84.58;99046.50;4190918;28;20056;-67
2023/10/25 09:18:13;;;;;;;7.00;4.95;;;;;;;11.96;84.04;99031.69;4191922;28;20131;-67
2023/10/25 09:20:17;;;;;;;7.32;4.65;;;;;;;12.07;83.09;99033.25;4193811;28;20131;-67
2023/10/25 09:22:22;;;;;;;6.00;4.70;;;;;;;12.02;83.06;99035.94;4193987;28;20402;-67
2023/10/25 09:24:25;;;;;;;7.78;4.90;;;;;;;11.95;83.43;99029.94;4194788;28;20037;-67
2023/10/25 09:26:34;;;;;;;7.50;4.80;;;;;;;11.86;84.10;99030.91;4167205;28;20124;-67
2023/10/25 09:28:37;;;;;;;5.07;4.30;;;;;;;11.76;84.06;99029.31;4194578;28;20401;-66
2023/10/25 09:30:40;;;;;;;10.00;4.90;;;;;;;11.80;84.68;99032.75;4192283;28;20104;-66
2023/10/25 09:32:43;;;;;;;5.03;3.70;;;;;;;11.85;84.49;99034.38;4194970;28;20051;-67